Marazion, United Kingdom
Current Conditions -  °F | °C
As of 3:50 PM on Tuesday 21 Oct 2014 (Local Time) from EGDR Reporting Station
Haze Haze  
Wind Chill: 55°   Ceiling: Unl
Heat Index: 55°   Visibility: 6mi
Dew Point: 39°   Wind: 24mph
Humidity: 54%   Direction: 310°NW
Pressure: 30.15"   Gusts: 40mph
Location:  50.13°N, 5.49°W
Report Text: EGDR 211450Z 31021G35KT 9999 HZ FEW020 SCT350 13/04 Q1021 BLU TEMPO 8000 -SHRA SCT020 WHT
Loading
Personal Weather Stations






























Interactive Weather Map
Tropical Storm Tracking
New forecast layout! Learn more

10-Day Weather Forecast

Advertisements
Track Severe Weather on mobile